Barchov, Czech Republic

10:12 PM CEST on July 26, 2017 (GMT +0200)
Pardubice | | Change Station

Elev 0 ft 50.04 °N, 15.68 °E | Updated 4 seconds ago

Overcast
Overcast
62.6 °F
Feels Like 62.6 °F
N
0.0
Wind Variable Wind from SSW
Gusts 0.0 mph

Today
High -- | Low -- °F
--% Chance of Precip.
Yesterday
High -- | Low -- °F
Precip. -- in
Pressure 29.68 in
Visibility 6.2 miles
Clouds Scattered Clouds 1700 ft
Overcast 3200 ft
Dew Point 58 °F
Humidity 85%
Rainfall 0.00 in
Snow Depth Not available.
5:18 AM 8:48 PM
Waxing Crescent, 15% visible
METAR LKPD 262000Z 27010KT 9999 SCT017 OVC032 17/14 Q1005 NOSIG RMK BLU BLU
Pressure 29.68 in
Visibility 6.2 miles
Clouds Scattered Clouds 1700 ft
Overcast 3200 ft
Dew Point 58 °F
Humidity 85%
Rainfall 0.00 in
Snow Depth Not available.
5:18 AM 8:48 PM
Waxing Crescent, 15% visible
METAR LKPD 262000Z 27010KT 9999 SCT017 OVC032 17/14 Q1005 NOSIG RMK BLU BLU

Get Severe Weather Alerts

Thanks for signing up!

Be on the lookout for a verification email in your inbox.

You'll start receiving the daily forecast at 6 AM.

×

10-Day Weather Forecast

×

Almanac

Astronomy

Jul. 26, 2017 Rise Set
Actual Time
Civil Twilight
Nautical Twilight
Astronomical Twilight
Moon
Length of Visible Light
Length of Day
Tomorrow will be .
, % of the Moon is Illuminated

Today's Extremes

Country Highs Country Lows

Community

WunderPhotos

Category 6

Welcome to Category 6. This is the collective home for Weather Underground's featured writeups by Dr. Jeff Masters (right), Bob Henson (left), Chris Burt, and other regular contributors.

Nearby

Air Quality

  Air Quality AQ Index Pollutant
Not available.

Snow Depth

Station Depth Elevation

Earthquake Activity

City Distance Mag. Time & Date
Minimum magnitude displayed is 2.5.

Coastal Water Temperatures

Place Temperature

Stations

Nearby Weather Stations

Station Location Temp. Windchill Dew Point Humidity Wind Precip. Elev Updated Type